createdAt,value
2023-04-16T00:01:33.342Z,30.56
2023-04-16T00:03:39.368Z,30.56
2023-04-16T00:05:44.437Z,30.65
2023-04-16T00:07:49.649Z,30.59
2023-04-16T00:09:54.844Z,30.53
2023-04-16T00:11:59.882Z,30.53
2023-04-16T00:14:04.986Z,30.56
2023-04-16T00:16:09.992Z,30.55
2023-04-16T00:18:14.985Z,30.51
2023-04-16T00:20:19.969Z,30.54
2023-04-16T00:22:24.963Z,30.52
2023-04-16T00:24:29.960Z,30.51
2023-04-16T00:26:34.964Z,30.68
2023-04-16T00:28:40.061Z,30.58
2023-04-16T00:30:45.132Z,30.64
2023-04-16T00:32:50.314Z,30.73
2023-04-16T00:34:55.300Z,30.67
2023-04-16T00:37:00.349Z,30.7
2023-04-16T00:39:05.489Z,30.75
2023-04-16T00:41:10.523Z,30.49
2023-04-16T00:43:15.541Z,30.53
2023-04-16T00:45:20.524Z,30.48
2023-04-16T00:47:25.630Z,30.43
2023-04-16T00:49:30.686Z,30.63
2023-04-16T00:51:35.678Z,30.57
2023-04-16T00:53:40.742Z,30.33
2023-04-16T00:55:45.762Z,30.64
2023-04-16T00:57:50.819Z,30.44
2023-04-16T00:59:55.799Z,30.29
2023-04-16T01:02:01.270Z,30.28
2023-04-16T01:04:06.809Z,30.59
2023-04-16T01:06:11.882Z,30.3
2023-04-16T01:08:16.853Z,30.31
2023-04-16T01:10:21.852Z,30.39
2023-04-16T01:12:26.843Z,30.45
2023-04-16T01:14:31.884Z,30.42
2023-04-16T01:16:36.878Z,30.89
2023-04-16T01:18:41.903Z,30.46
2023-04-16T01:20:46.923Z,30.59
2023-04-16T01:22:52.040Z,31.11
2023-04-16T01:24:56.997Z,31.27
2023-04-16T01:27:02.030Z,31.27
2023-04-16T01:29:07.235Z,31.24
2023-04-16T01:31:12.481Z,31.21
2023-04-16T01:33:17.466Z,31.12
2023-04-16T01:35:22.582Z,30.93
2023-04-16T01:37:27.550Z,31.07
2023-04-16T01:39:32.534Z,31.09
2023-04-16T01:41:37.509Z,31.11
2023-04-16T01:43:42.903Z,30.97
2023-04-16T01:45:47.934Z,31.11
2023-04-16T01:47:53.091Z,31.04
2023-04-16T01:49:58.160Z,30.95
2023-04-16T01:52:03.257Z,31.15
2023-04-16T01:54:08.243Z,31.11
2023-04-16T01:56:13.271Z,31.24
2023-04-16T01:58:18.335Z,31.07
2023-04-16T02:00:23.328Z,31.07
2023-04-16T02:02:28.829Z,31.15
2023-04-16T02:04:33.812Z,31.27
2023-04-16T02:06:38.751Z,31.27
2023-04-16T02:08:43.760Z,31.27
2023-04-16T02:10:48.743Z,31.31
2023-04-16T02:12:53.720Z,31.27
2023-04-16T02:14:58.695Z,31.4
2023-04-16T02:17:03.678Z,31.14
2023-04-16T02:19:09.148Z,31.09
2023-04-16T02:21:14.432Z,31.1
2023-04-16T02:23:19.446Z,31.27
2023-04-16T02:27:12.780Z,31.29
2023-04-16T02:29:17.956Z,31.21
2023-04-16T02:31:23.118Z,31.3
2023-04-16T02:33:28.145Z,31.19
2023-04-16T02:35:33.145Z,31.19
2023-04-16T02:37:38.181Z,31.32
2023-04-16T02:39:43.206Z,31.27
2023-04-16T02:41:48.191Z,31.2
2023-04-16T02:43:53.170Z,31.02
2023-04-16T02:45:58.306Z,31.2
2023-04-16T02:48:03.832Z,31.31
2023-04-16T02:50:08.933Z,31.17
2023-04-16T02:52:17.000Z,31.38
2023-04-16T02:54:21.952Z,31.43
2023-04-16T02:56:26.990Z,31.41
2023-04-16T02:58:31.984Z,31.44
2023-04-16T03:00:36.994Z,31.4
2023-04-16T03:02:42.415Z,31.76
2023-04-16T03:04:47.580Z,31.36
2023-04-16T03:06:52.593Z,31.55
2023-04-16T03:08:57.601Z,31.41
2023-04-16T03:11:02.654Z,31.28
2023-04-16T03:13:07.641Z,31.37
2023-04-16T03:15:12.624Z,31.51
2023-04-16T03:17:17.884Z,31.73
2023-04-16T03:19:22.953Z,32.07
2023-04-16T03:21:27.995Z,31.92
2023-04-16T03:23:33.041Z,31.86
2023-04-16T03:25:38.155Z,31.87
2023-04-16T03:27:43.267Z,31.67
2023-04-16T03:29:48.528Z,31.8
2023-04-16T03:31:53.635Z,31.82
2023-04-16T03:33:58.731Z,31.57
2023-04-16T03:36:03.767Z,31.45
2023-04-16T03:38:08.766Z,31.57
2023-04-16T03:40:13.757Z,31.66
2023-04-16T03:42:18.842Z,31.8
2023-04-16T03:44:23.873Z,31.67
2023-04-16T03:46:29.033Z,31.6
2023-04-16T03:48:34.101Z,31.61
2023-04-16T03:50:39.164Z,31.73
2023-04-16T03:52:44.229Z,31.78
2023-04-16T03:54:49.330Z,31.69
2023-04-16T03:56:54.526Z,31.59
2023-04-16T03:58:59.556Z,31.73
2023-04-16T04:01:04.602Z,31.62
2023-04-16T04:03:10.285Z,31.31
2023-04-16T04:05:15.449Z,31.37
2023-04-16T04:07:20.552Z,31.32
2023-04-16T04:09:25.616Z,31.67
2023-04-16T04:11:30.722Z,31.45
2023-04-16T04:13:35.796Z,31.34
2023-04-16T04:15:40.960Z,31.65
2023-04-16T04:17:46.340Z,31.52
2023-04-16T04:20:03.554Z,31.33
2023-04-16T04:22:08.606Z,31.39
2023-04-16T04:24:13.647Z,31.13
2023-04-16T04:26:18.910Z,31.24
2023-04-16T04:28:24.013Z,31.13
2023-04-16T04:30:29.033Z,31.21
2023-04-16T04:32:34.215Z,31.27
2023-04-16T04:34:39.257Z,31.45
2023-04-16T04:36:44.323Z,31.16
2023-04-16T04:38:49.344Z,31.04
2023-04-16T04:40:54.400Z,31.27
2023-04-16T04:42:59.453Z,31.45
2023-04-16T04:45:04.456Z,31.57
2023-04-16T04:47:09.474Z,31.58
2023-04-16T04:49:14.709Z,31.83
2023-04-16T04:51:19.740Z,31.32
2023-04-16T04:53:25.366Z,31.45
2023-04-16T04:55:30.418Z,31.31
2023-04-16T04:57:35.508Z,31.12
2023-04-16T04:59:40.584Z,30.91
2023-04-16T05:01:45.607Z,31.14
2023-04-16T05:03:51.119Z,31.33
2023-04-16T05:05:56.232Z,31.11
2023-04-16T05:08:01.380Z,31.2
2023-04-16T05:10:06.521Z,31.03
2023-04-16T05:12:11.541Z,31.08
2023-04-16T05:14:16.584Z,30.9
2023-04-16T05:16:21.873Z,31.19
2023-04-16T05:18:26.982Z,30.58
2023-04-16T05:20:32.039Z,30.79
2023-04-16T05:22:37.198Z,30.74
2023-04-16T05:24:42.292Z,31.16
2023-04-16T05:26:47.316Z,31.13
2023-04-16T05:28:52.360Z,31.03
2023-04-16T05:30:58.088Z,31.03
2023-04-16T05:33:03.341Z,30.87
2023-04-16T05:35:08.407Z,31.03
2023-04-16T05:37:13.509Z,30.92
2023-04-16T05:39:18.597Z,30.66
2023-04-16T05:41:23.631Z,31.03
2023-04-16T05:43:28.614Z,30.98
2023-04-16T05:45:33.667Z,30.98
2023-04-16T05:47:38.857Z,30.79
2023-04-16T05:49:43.872Z,31.05
2023-04-16T05:51:51.116Z,30.98
2023-04-16T05:53:56.319Z,31.04
2023-04-16T05:56:01.388Z,31.47
2023-04-16T05:58:06.414Z,31.64
2023-04-16T06:00:11.549Z,31.47
2023-04-16T06:02:16.895Z,30.85
2023-04-16T06:04:22.437Z,31.04
2023-04-16T06:06:27.570Z,30.96
2023-04-16T06:08:32.592Z,31.5
2023-04-16T06:10:37.622Z,31.74
2023-04-16T06:12:42.652Z,31.79
2023-04-16T06:14:47.671Z,31.61
2023-04-16T06:16:52.799Z,31.67
2023-04-16T06:18:57.836Z,31.79
2023-04-16T06:21:02.896Z,31.67
2023-04-16T06:23:07.941Z,31.57
2023-04-16T06:25:12.944Z,31.8
2023-04-16T06:27:18.041Z,31.82
2023-04-16T06:29:41.316Z,31.7
2023-04-16T06:31:47.024Z,31.59
2023-04-16T06:33:52.160Z,31.43
2023-04-16T06:35:57.212Z,31.6
2023-04-16T06:38:02.260Z,32.33
2023-04-16T06:40:07.366Z,32.64
2023-04-16T06:42:12.437Z,32.34
2023-04-16T06:44:17.458Z,32.5
2023-04-16T06:46:22.595Z,32.26
2023-04-16T06:48:27.720Z,32.56
2023-04-16T06:50:32.819Z,31.65
2023-04-16T06:52:37.964Z,31.59
2023-04-16T06:54:42.990Z,32.38
2023-04-16T06:56:48.029Z,32.47
2023-04-16T06:58:53.026Z,31.99
2023-04-16T07:00:58.173Z,31.96
2023-04-16T07:03:04.042Z,31.75
2023-04-16T07:05:09.287Z,31.82
2023-04-16T07:07:14.434Z,32.62
2023-04-16T07:09:19.479Z,31.82
2023-04-16T07:11:24.509Z,32.23
2023-04-16T07:13:29.543Z,33.44
2023-04-16T07:15:34.557Z,33.63
2023-04-16T07:17:39.771Z,33.95
2023-04-16T07:19:44.909Z,33.73
2023-04-16T07:21:49.917Z,33.68
2023-04-16T07:23:54.950Z,34.08
2023-04-16T07:26:00.032Z,34.48
2023-04-16T07:28:05.077Z,35.11
2023-04-16T07:30:10.182Z,35
2023-04-16T07:32:17.915Z,35.41
2023-04-16T07:34:23.017Z,35.61
2023-04-16T07:36:28.118Z,35.7
2023-04-16T07:38:33.230Z,35.45
2023-04-16T07:40:38.289Z,35.47
2023-04-16T07:42:43.393Z,35.49
2023-04-16T07:44:48.409Z,34.23
2023-04-16T07:46:53.751Z,33.53
2023-04-16T07:48:58.997Z,34.34
2023-04-16T07:51:04.072Z,34.15
2023-04-16T07:53:09.228Z,34.78
2023-04-16T07:55:14.242Z,35.47
2023-04-16T07:57:19.221Z,35.64
2023-04-16T07:59:27.620Z,35.87
2023-04-16T08:01:32.878Z,36.05
2023-04-16T08:03:38.858Z,35.76
2023-04-16T08:05:44.063Z,35.87
2023-04-16T08:07:49.120Z,36.46
2023-04-16T08:09:54.257Z,36.22
2023-04-16T08:11:59.303Z,36.32
2023-04-16T08:14:04.376Z,36.39
2023-04-16T08:16:09.566Z,36.27
2023-04-16T08:18:14.700Z,36.54
2023-04-16T08:20:21.828Z,36.14
2023-04-16T08:22:26.902Z,36.11
2023-04-16T08:24:31.991Z,36.04
2023-04-16T08:26:37.167Z,36.05
2023-04-16T08:28:42.153Z,36
2023-04-16T08:30:47.132Z,35.77
2023-04-16T08:32:52.857Z,35.59
2023-04-16T08:34:57.855Z,35.43
2023-04-16T08:37:02.941Z,35.17
2023-04-16T08:39:08.029Z,35.09
2023-04-16T08:41:13.218Z,35.25
2023-04-16T08:43:18.391Z,35.21
2023-04-16T08:45:23.499Z,34.83
2023-04-16T08:47:28.633Z,34.96
2023-04-16T08:49:33.687Z,35.31
2023-04-16T08:51:38.760Z,35.29
2023-04-16T08:53:43.800Z,35.2
2023-04-16T08:55:48.851Z,35.25
2023-04-16T08:57:53.896Z,35.16
2023-04-16T08:59:58.931Z,35.1
2023-04-16T09:02:04.400Z,35.12
2023-04-16T09:04:10.180Z,35.08
2023-04-16T09:06:15.329Z,35.11
2023-04-16T09:08:20.337Z,35.1
2023-04-16T09:10:25.438Z,35.05
2023-04-16T09:12:30.597Z,35.03
2023-04-16T09:14:35.758Z,34.96
2023-04-16T09:16:41.440Z,35.01
2023-04-16T09:18:46.491Z,35.06
2023-04-16T09:20:51.623Z,34.96
2023-04-16T09:22:56.671Z,34.99
2023-04-16T09:25:01.744Z,35
2023-04-16T09:27:06.953Z,34.93
2023-04-16T09:29:12.858Z,34.99
2023-04-16T09:31:18.328Z,34.94
2023-04-16T09:33:24.078Z,34.92
2023-04-16T09:35:29.116Z,34.9
2023-04-16T09:37:34.227Z,34.86
2023-04-16T09:39:39.343Z,34.81
2023-04-16T09:41:44.410Z,34.9
2023-04-16T09:43:49.421Z,34.85
2023-04-16T09:45:54.705Z,34.82
2023-04-16T09:48:00.030Z,34.85
2023-04-16T09:50:05.104Z,34.89
2023-04-16T09:52:10.204Z,34.81
2023-04-16T09:54:15.319Z,34.88
2023-04-16T09:56:20.364Z,34.9
2023-04-16T09:58:25.426Z,34.92
2023-04-16T10:00:30.482Z,34.84
2023-04-16T10:02:36.133Z,34.83
2023-04-16T10:04:41.500Z,34.8
2023-04-16T10:06:46.683Z,34.82
2023-04-16T10:08:52.873Z,34.8
2023-04-16T10:10:57.914Z,34.44
2023-04-16T10:13:02.939Z,34.3
2023-04-16T10:15:08.020Z,34.17
2023-04-16T10:17:13.297Z,34.13
2023-04-16T10:19:18.409Z,34.15
2023-04-16T10:21:23.587Z,34.11
2023-04-16T10:23:28.625Z,34.4
2023-04-16T10:25:33.699Z,34.17
2023-04-16T10:27:38.837Z,34.15
2023-04-16T10:29:44.014Z,34.16
2023-04-16T10:31:49.070Z,34.07
2023-04-16T10:33:54.082Z,34.08
2023-04-16T10:36:09.898Z,33.89
2023-04-16T10:38:14.999Z,33.84
2023-04-16T10:40:20.187Z,33.84
2023-04-16T10:42:25.313Z,33.82
2023-04-16T10:44:30.319Z,33.74
2023-04-16T10:46:35.816Z,33.79
2023-04-16T10:48:52.234Z,33.75
2023-04-16T10:50:57.272Z,33.68
2023-04-16T10:53:02.388Z,33.57
2023-04-16T10:55:07.428Z,33.57
2023-04-16T10:57:12.460Z,33.39
2023-04-16T10:59:17.500Z,33.22
2023-04-16T11:01:22.665Z,33.25
2023-04-16T11:03:28.256Z,33.21
2023-04-16T11:05:33.467Z,33.12
2023-04-16T11:07:38.575Z,33.08
2023-04-16T11:09:43.620Z,33.06
2023-04-16T11:11:48.669Z,33.09
2023-04-16T11:13:53.706Z,33.06
2023-04-16T11:15:59.046Z,32.98
2023-04-16T11:18:04.431Z,32.97
2023-04-16T11:20:22.970Z,33.04
2023-04-16T11:22:28.140Z,33.02
2023-04-16T11:24:33.274Z,32.92
2023-04-16T11:26:38.348Z,33.01
2023-04-16T11:28:43.401Z,32.97
2023-04-16T11:30:48.663Z,33.01
2023-04-16T11:32:53.930Z,33
2023-04-16T11:34:59.032Z,33.07
2023-04-16T11:37:04.064Z,33.02
2023-04-16T11:39:09.499Z,33.08
2023-04-16T11:41:14.698Z,33.1
2023-04-16T11:43:19.763Z,33.12
2023-04-16T11:45:24.880Z,33.12
2023-04-16T11:47:30.510Z,33.17
2023-04-16T11:49:35.694Z,33.3
2023-04-16T11:51:40.735Z,33.35
2023-04-16T11:53:45.804Z,33.45
2023-04-16T11:55:50.900Z,33.53
2023-04-16T11:57:56.039Z,33.51
2023-04-16T12:00:08.064Z,33.58
2023-04-16T12:02:14.505Z,33.52
2023-04-16T12:04:20.372Z,33.6
2023-04-16T12:06:26.862Z,33.55
2023-04-16T12:08:31.979Z,33.7
2023-04-16T12:10:37.091Z,33.68
2023-04-16T12:12:42.216Z,33.7
2023-04-16T12:14:47.287Z,33.56
2023-04-16T12:16:52.576Z,33.71
2023-04-16T12:18:57.924Z,33.65
2023-04-16T12:21:02.997Z,33.63
2023-04-16T12:23:08.099Z,33.67
2023-04-16T12:25:13.316Z,33.79
2023-04-16T12:27:18.524Z,33.84
2023-04-16T12:29:23.709Z,33.88
2023-04-16T12:31:28.883Z,33.79
2023-04-16T12:33:34.169Z,33.83
2023-04-16T12:35:39.238Z,33.82
2023-04-16T12:37:44.298Z,33.83
2023-04-16T12:39:50.538Z,33.82
2023-04-16T12:41:55.593Z,33.92
2023-04-16T12:44:00.661Z,33.88
2023-04-16T12:46:07.143Z,33.87
2023-04-16T12:48:12.200Z,33.79
2023-04-16T12:50:17.289Z,33.66
2023-04-16T12:52:25.060Z,33.61
2023-04-16T12:54:30.210Z,33.7
2023-04-16T12:56:35.279Z,33.69
2023-04-16T12:58:40.366Z,33.71
2023-04-16T13:00:45.440Z,33.76
2023-04-16T13:02:51.080Z,33.76
2023-04-16T13:04:56.336Z,33.78
2023-04-16T13:07:01.393Z,33.76
2023-04-16T13:09:06.466Z,33.73
2023-04-16T13:11:11.542Z,33.75
2023-04-16T13:13:16.582Z,33.77
2023-04-16T13:15:21.604Z,33.83
2023-04-16T13:17:26.812Z,33.85
2023-04-16T13:19:32.164Z,33.88
2023-04-16T13:21:37.292Z,33.88
2023-04-16T13:23:42.312Z,33.82
2023-04-16T13:25:48.960Z,33.77
2023-04-16T13:27:55.608Z,33.79
2023-04-16T13:30:00.746Z,33.73
2023-04-16T13:32:05.826Z,33.73
2023-04-16T13:34:10.941Z,33.76
2023-04-16T13:36:16.001Z,33.77
2023-04-16T13:38:21.204Z,33.89
2023-04-16T13:40:26.241Z,33.84
2023-04-16T13:42:31.271Z,33.96
2023-04-16T13:44:36.458Z,33.96
2023-04-16T13:46:41.678Z,34.07
2023-04-16T13:48:46.779Z,34.13
2023-04-16T13:50:51.850Z,34.16
2023-04-16T13:52:56.892Z,34.23
2023-04-16T13:55:02.740Z,34.29
2023-04-16T13:57:07.823Z,34.33
2023-04-16T13:59:13.479Z,34.33
2023-04-16T14:01:18.962Z,34.35
2023-04-16T14:03:24.414Z,34.34
2023-04-16T14:05:29.800Z,34.35
2023-04-16T14:07:34.874Z,34.27
2023-04-16T14:09:39.903Z,34.35
2023-04-16T14:11:44.995Z,34.67
2023-04-16T14:13:50.045Z,34.94
2023-04-16T14:15:55.271Z,35.14
2023-04-16T14:18:00.488Z,35.31
2023-04-16T14:20:10.420Z,35.22
2023-04-16T14:22:15.476Z,35.43
2023-04-16T14:24:20.496Z,35.35
2023-04-16T14:26:25.631Z,35.3
2023-04-16T14:28:30.684Z,35.44
2023-04-16T14:30:37.093Z,35.43
2023-04-16T14:32:42.319Z,35.42
2023-04-16T14:34:50.068Z,35.42
2023-04-16T14:36:57.661Z,35.44
2023-04-16T14:39:02.745Z,35.48
2023-04-16T14:41:13.748Z,35.46
2023-04-16T14:43:20.853Z,35.41
2023-04-16T14:45:33.921Z,35.37
2023-04-16T14:47:42.417Z,35.43
2023-04-16T14:50:00.274Z,35.46
2023-04-16T14:52:12.828Z,35.37
2023-04-16T14:54:17.840Z,35.31
2023-04-16T14:56:25.906Z,35.29
2023-04-16T14:58:31.065Z,35.36
2023-04-16T15:00:36.100Z,35.29
2023-04-16T15:02:44.387Z,35.31
2023-04-16T15:04:54.852Z,35.34
2023-04-16T15:07:01.121Z,35.28
2023-04-16T15:09:10.481Z,35.36
2023-04-16T15:11:15.725Z,35.33
2023-04-16T15:13:23.037Z,35.33
2023-04-16T15:15:30.769Z,35.33
2023-04-16T15:17:35.888Z,35.36
2023-04-16T15:19:40.967Z,35.27
2023-04-16T15:24:07.241Z,35.2
2023-04-16T15:26:12.300Z,35.23
2023-04-16T15:28:17.341Z,35.13
2023-04-16T15:30:24.832Z,35.07
2023-04-16T15:32:29.888Z,35.1
2023-04-16T15:34:35.013Z,35.04
2023-04-16T15:36:40.157Z,35.02
2023-04-16T15:38:45.172Z,35.08
2023-04-16T15:40:50.253Z,35.14
2023-04-16T15:42:55.319Z,35.02
2023-04-16T15:45:00.478Z,35.14
2023-04-16T15:47:05.716Z,35
2023-04-16T15:49:11.448Z,35.07
2023-04-16T15:51:19.267Z,35.04
2023-04-16T15:53:24.379Z,34.88
2023-04-16T15:55:29.440Z,34.97
2023-04-16T15:57:34.588Z,34.94
2023-04-16T15:59:50.218Z,34.92
2023-04-16T16:01:58.590Z,34.88
2023-04-16T16:04:07.262Z,34.86
2023-04-16T16:06:12.627Z,34.94
2023-04-16T16:08:20.236Z,34.88
2023-04-16T16:10:25.317Z,34.82
2023-04-16T16:12:30.402Z,34.76
2023-04-16T16:14:35.444Z,34.8
2023-04-16T16:16:40.650Z,34.88
2023-04-16T16:18:45.967Z,34.94
2023-04-16T16:20:50.980Z,34.84
2023-04-16T16:22:56.098Z,34.88
2023-04-16T16:25:01.181Z,34.96
2023-04-16T16:27:06.287Z,34.98
2023-04-16T16:29:11.922Z,34.88
2023-04-16T16:31:17.320Z,34.79
2023-04-16T16:33:22.403Z,34.76
2023-04-16T16:35:27.431Z,34.72
2023-04-16T16:37:32.551Z,34.9
2023-04-16T16:39:40.730Z,34.83
2023-04-16T16:41:45.789Z,34.83
2023-04-16T16:43:50.991Z,34.82
2023-04-16T16:45:56.053Z,34.88
2023-04-16T16:48:01.239Z,34.91
2023-04-16T16:50:06.468Z,35.01
2023-04-16T16:52:11.567Z,34.95
2023-04-16T16:54:16.613Z,34.81
2023-04-16T16:56:21.709Z,34.92
2023-04-16T16:58:26.788Z,34.82
2023-04-16T17:00:31.845Z,34.96
2023-04-16T17:02:37.576Z,34.98
2023-04-16T17:04:43.160Z,34.98
2023-04-16T17:06:48.491Z,34.96
2023-04-16T17:08:53.600Z,35.07
2023-04-16T17:10:58.740Z,34.96
2023-04-16T17:13:03.806Z,35.02
2023-04-16T17:15:08.862Z,35.02
2023-04-16T17:17:13.956Z,35.08
2023-04-16T17:19:19.084Z,35.06
2023-04-16T17:21:24.170Z,35.08
2023-04-16T17:23:29.349Z,35.1
2023-04-16T17:25:34.457Z,35.07
2023-04-16T17:27:42.208Z,35.01
2023-04-16T17:29:47.249Z,35.04
2023-04-16T17:31:52.592Z,35.04
2023-04-16T17:33:57.826Z,35.13
2023-04-16T17:36:02.873Z,35.01
2023-04-16T17:38:07.952Z,35.05
2023-04-16T17:40:13.049Z,35.11
2023-04-16T17:42:18.230Z,35.07
2023-04-16T17:44:23.364Z,35.13
2023-04-16T17:46:28.642Z,35.11
2023-04-16T17:48:33.694Z,35.1
2023-04-16T17:50:41.827Z,35
2023-04-16T17:52:46.965Z,35.06
2023-04-16T17:54:52.060Z,35.07
2023-04-16T17:56:57.119Z,35.1
2023-04-16T17:59:02.276Z,35.05
2023-04-16T18:01:07.448Z,35.03
2023-04-16T18:03:12.952Z,35.05
2023-04-16T18:05:18.102Z,34.99
2023-04-16T18:07:23.270Z,34.94
2023-04-16T18:09:28.389Z,34.94
2023-04-16T18:11:33.687Z,34.91
2023-04-16T18:13:38.778Z,35.21
2023-04-16T18:15:43.958Z,35.05
2023-04-16T18:17:49.201Z,35.17
2023-04-16T18:19:54.385Z,35.12
2023-04-16T18:21:59.471Z,35.14
2023-04-16T18:24:04.593Z,35.13
2023-04-16T18:26:12.818Z,35.19
2023-04-16T18:28:17.964Z,35.09
2023-04-16T18:30:29.657Z,35.13
2023-04-16T18:32:37.211Z,35.18
2023-04-16T18:34:42.784Z,35.11
2023-04-16T18:36:47.844Z,35.11
2023-04-16T18:39:04.183Z,35.08
2023-04-16T18:41:09.280Z,35.05
2023-04-16T18:43:14.513Z,35.11
2023-04-16T18:45:24.452Z,35.08
2023-04-16T18:47:29.634Z,35.08
2023-04-16T18:49:34.661Z,35
2023-04-16T18:51:39.865Z,35.09
2023-04-16T18:53:44.970Z,35.16
2023-04-16T18:55:50.061Z,35.11
2023-04-16T18:57:55.108Z,35.09
2023-04-16T19:00:00.234Z,35.22
2023-04-16T19:02:05.369Z,35.1
2023-04-16T19:04:10.748Z,35.16
2023-04-16T19:06:15.969Z,35.01
2023-04-16T19:08:21.117Z,35
2023-04-16T19:10:26.262Z,34.95
2023-04-16T19:12:31.465Z,34.88
2023-04-16T19:14:36.692Z,34.84
2023-04-16T19:16:42.182Z,35.2
2023-04-16T19:18:47.421Z,35.33
2023-04-16T19:20:52.679Z,35.41
2023-04-16T19:22:57.851Z,35.58
2023-04-16T19:25:02.993Z,35.19
2023-04-16T19:27:08.078Z,35.28
2023-04-16T19:29:13.721Z,35.27
2023-04-16T19:31:18.930Z,35.34
2023-04-16T19:33:24.078Z,35.43
2023-04-16T19:35:29.214Z,35.39
2023-04-16T19:37:34.259Z,35.56
2023-04-16T19:39:39.305Z,35.88
2023-04-16T19:41:44.369Z,35.92
2023-04-16T19:43:49.392Z,35.79
2023-04-16T19:45:54.912Z,35.84
2023-04-16T19:48:00.134Z,35.96
2023-04-16T19:50:05.171Z,35.89
2023-04-16T19:52:10.237Z,36.27
2023-04-16T19:54:15.386Z,36.1
2023-04-16T19:56:20.440Z,36.28
2023-04-16T19:58:25.534Z,36.26
2023-04-16T20:00:30.665Z,36.21
2023-04-16T20:02:36.184Z,36.36
2023-04-16T20:04:41.360Z,36.41
2023-04-16T20:06:46.425Z,36.13
2023-04-16T20:08:51.497Z,36.01
2023-04-16T20:10:56.547Z,36.2
2023-04-16T20:13:01.766Z,36.04
2023-04-16T20:15:06.796Z,36.09
2023-04-16T20:17:12.409Z,36.03
2023-04-16T20:19:20.472Z,35.97
2023-04-16T20:21:25.509Z,36.01
2023-04-16T20:23:30.613Z,36.02
2023-04-16T20:25:35.742Z,36.02
2023-04-16T20:27:41.130Z,36.3
2023-04-16T20:29:46.369Z,36.1
2023-04-16T20:31:51.431Z,36.25
2023-04-16T20:33:56.549Z,36.35
2023-04-16T20:36:01.623Z,36.34
2023-04-16T20:38:06.670Z,36.23
2023-04-16T20:40:11.785Z,36.32
2023-04-16T20:42:16.857Z,36.45
2023-04-16T20:44:21.918Z,36.42
2023-04-16T20:46:27.123Z,36.54
2023-04-16T20:48:32.218Z,36.39
2023-04-16T20:50:37.285Z,36.38
2023-04-16T20:52:42.418Z,36.42
2023-04-16T20:54:47.466Z,36.59
2023-04-16T20:56:52.507Z,36.52
2023-04-16T20:58:57.609Z,36.55
2023-04-16T21:01:02.662Z,36.52
2023-04-16T21:03:08.373Z,36.67
2023-04-16T21:05:13.448Z,36.7
2023-04-16T21:07:18.658Z,36.5
2023-04-16T21:09:24.184Z,36.5
2023-04-16T21:11:29.215Z,36.85
2023-04-16T21:13:34.238Z,36.75
2023-04-16T21:15:39.309Z,37.22
2023-04-16T21:17:44.628Z,37.21
2023-04-16T21:19:49.725Z,37.11
2023-04-16T21:21:54.934Z,37.05
2023-04-16T21:23:59.987Z,37.16
2023-04-16T21:26:05.035Z,37.25
2023-04-16T21:28:10.178Z,37.32
2023-04-16T21:30:15.241Z,37.02
2023-04-16T21:32:20.284Z,37.26
2023-04-16T21:34:25.458Z,37.25
2023-04-16T21:36:30.545Z,36.77
2023-04-16T21:38:35.664Z,37.1
2023-04-16T21:40:41.247Z,37.03
2023-04-16T21:42:46.402Z,37.31
2023-04-16T21:44:51.508Z,37.48
2023-04-16T21:46:56.747Z,36.23
2023-04-16T21:49:02.023Z,34.41
2023-04-16T21:51:07.094Z,33.97
2023-04-16T21:53:12.277Z,33.74
2023-04-16T21:55:17.679Z,33.59
2023-04-16T21:57:22.714Z,33.59
2023-04-16T21:59:27.838Z,33.46
2023-04-16T22:01:33.178Z,33.48
2023-04-16T22:03:39.140Z,33.4
2023-04-16T22:05:45.480Z,33.36
2023-04-16T22:07:50.510Z,33.35
2023-04-16T22:09:55.584Z,33.31
2023-04-16T22:12:00.687Z,33.27
2023-04-16T22:14:05.825Z,33.25
2023-04-16T22:16:13.842Z,33.23
2023-04-16T22:18:18.934Z,33.22
2023-04-16T22:20:23.997Z,33.21
2023-04-16T22:22:29.140Z,33.16
2023-04-16T22:24:34.347Z,33.16
2023-04-16T22:26:39.429Z,33.15
2023-04-16T22:28:44.513Z,33.18
2023-04-16T22:30:49.549Z,33.15
2023-04-16T22:32:54.787Z,33.17
2023-04-16T22:34:59.918Z,33.15
2023-04-16T22:37:05.023Z,33.16
2023-04-16T22:39:10.431Z,33.16
2023-04-16T22:41:15.735Z,33.16
2023-04-16T22:43:20.859Z,33.12
2023-04-16T22:45:25.873Z,33.16
2023-04-16T22:47:31.061Z,33.15
2023-04-16T22:49:36.148Z,33.25
2023-04-16T22:51:41.179Z,33.12
2023-04-16T22:53:46.277Z,33.16
2023-04-16T22:55:51.329Z,33.17
2023-04-16T22:57:56.407Z,33.17
2023-04-16T23:00:01.605Z,33.18
2023-04-16T23:02:06.831Z,33.15
2023-04-16T23:04:12.173Z,33.16
2023-04-16T23:06:17.251Z,33.25
2023-04-16T23:08:22.240Z,33.22
2023-04-16T23:10:27.275Z,33.28
2023-04-16T23:12:32.349Z,33.33
2023-04-16T23:14:37.400Z,33.33
2023-04-16T23:16:42.528Z,33.4
2023-04-16T23:18:47.598Z,33.45
2023-04-16T23:20:52.665Z,33.49
2023-04-16T23:22:57.779Z,33.54
2023-04-16T23:25:02.950Z,33.7
2023-04-16T23:27:08.073Z,33.59
2023-04-16T23:29:14.143Z,33.49
2023-04-16T23:31:19.407Z,33.53
2023-04-16T23:33:24.518Z,33.54
2023-04-16T23:35:29.543Z,33.54
2023-04-16T23:37:34.605Z,33.57
2023-04-16T23:39:39.813Z,33.63
2023-04-16T23:41:44.829Z,33.66
2023-04-16T23:43:49.883Z,33.67
2023-04-16T23:45:55.118Z,33.66
2023-04-16T23:48:00.475Z,33.69
2023-04-16T23:50:05.658Z,33.78
2023-04-16T23:52:10.745Z,33.7
2023-04-16T23:54:15.869Z,33.72
2023-04-16T23:56:20.943Z,33.76
2023-04-16T23:58:26.138Z,33.74
